KEDE/EDE METAR and TAF weather

Enter ICAO airport designator
Station Type Date Time Source
KEDE METAR 2020/07/04 02:35 UTC NOAA

KEDE 040235Z AUTO 00000KT 10SM CLR 26/24 A2990 RMK AO2 T02610240


Station Type Date Time Source
KEDE Decoded METAR 2020/07/04 02:35 UTC NOAA

Edenton, Northeastern Regional Airport, NC, United States (KEDE) 36-01-40N 076-34-02W
Jul 03, 2020 - 10:35 PM EDT / 2020.07.04 0235 UTC
Wind: Calm:0
Visibility: 10 mile(s):0
Sky conditions: clear
Temperature: 79.0 F (26.1 C)
Dew Point: 75.2 F (24.0 C)
Relative Humidity: 88%
Pressure (altimeter): 29.9 in. Hg (1012 hPa)
ob: KEDE 040235Z AUTO 00000KT 10SM CLR 26/24 A2990 RMK AO2 T02610240
cycle: 2

Station Type Date Time Source
KEDE TAF UTC NOAA

Error!

Example: see airport list